createdAt,value
2018-11-06T00:02:52.274Z,83.18
2018-11-06T00:05:56.438Z,83.77
2018-11-06T00:09:00.664Z,83.77
2018-11-06T00:12:04.947Z,82.54
2018-11-06T00:15:09.754Z,81.86
2018-11-06T00:18:13.914Z,81.94
2018-11-06T00:21:18.076Z,82.08
2018-11-06T00:24:22.239Z,81.08
2018-11-06T00:27:26.410Z,81.27
2018-11-06T00:30:30.566Z,81.41
2018-11-06T00:33:34.750Z,80.68
2018-11-06T00:36:38.911Z,80.59
2018-11-06T00:39:43.075Z,80.90
2018-11-06T00:42:47.240Z,81.55
2018-11-06T00:45:51.383Z,81.56
2018-11-06T00:48:55.546Z,80.95
2018-11-06T00:51:59.713Z,80.92
2018-11-06T00:55:06.066Z,81.34
2018-11-06T00:58:10.226Z,81.04
2018-11-06T01:01:14.390Z,80.81
2018-11-06T01:04:18.551Z,80.40
2018-11-06T01:07:22.711Z,81.07
2018-11-06T01:10:26.942Z,81.30
2018-11-06T01:13:31.107Z,79.81
2018-11-06T01:16:35.255Z,80.67
2018-11-06T01:19:39.357Z,80.67
2018-11-06T01:22:43.482Z,80.17
2018-11-06T01:25:47.631Z,80.47
2018-11-06T01:28:51.798Z,80.69
2018-11-06T01:31:55.963Z,80.15
2018-11-06T01:35:00.134Z,81.09
2018-11-06T01:38:04.325Z,81.56
2018-11-06T01:41:08.469Z,80.41
2018-11-06T01:44:12.627Z,80.04
2018-11-06T01:47:16.790Z,79.60
2018-11-06T01:50:20.954Z,79.99
2018-11-06T01:53:25.107Z,79.85
2018-11-06T01:56:29.264Z,80.53
2018-11-06T01:59:33.421Z,79.57
2018-11-06T02:02:37.582Z,80.14
2018-11-06T02:05:41.752Z,80.30
2018-11-06T02:08:45.913Z,79.89
2018-11-06T02:11:50.072Z,80.13
2018-11-06T02:14:54.234Z,79.68
2018-11-06T02:17:58.411Z,79.98
2018-11-06T02:21:02.558Z,80.60
2018-11-06T02:24:06.713Z,80.75
2018-11-06T02:27:10.870Z,79.67
2018-11-06T02:30:17.045Z,80.67
2018-11-06T02:33:21.211Z,80.50
2018-11-06T02:36:25.407Z,81.89
2018-11-06T02:39:29.562Z,81.21
2018-11-06T02:42:33.734Z,79.81
2018-11-06T02:45:37.922Z,79.93
2018-11-06T02:48:42.090Z,79.64
2018-11-06T02:51:46.249Z,79.92
2018-11-06T02:54:50.420Z,79.81
2018-11-06T02:57:54.579Z,79.95
2018-11-06T03:00:58.743Z,79.94
2018-11-06T03:04:02.889Z,80.01
2018-11-06T03:07:07.078Z,79.93
2018-11-06T03:10:12.337Z,79.91
2018-11-06T03:13:16.399Z,80.45
2018-11-06T03:16:20.518Z,80.88
2018-11-06T03:19:24.665Z,80.70
2018-11-06T03:22:28.804Z,81.44
2018-11-06T03:25:32.923Z,81.15
2018-11-06T03:28:37.058Z,82.00
2018-11-06T03:31:41.240Z,83.05
2018-11-06T03:34:45.717Z,81.75
2018-11-06T03:37:49.880Z,80.94
2018-11-06T03:40:54.068Z,81.12
2018-11-06T03:43:58.211Z,81.43
2018-11-06T03:47:02.386Z,80.57
2018-11-06T03:50:08.147Z,81.01
2018-11-06T03:53:12.318Z,80.85
2018-11-06T03:56:16.470Z,81.00
2018-11-06T03:59:21.002Z,81.33
2018-11-06T04:02:25.179Z,81.87
2018-11-06T04:05:29.334Z,81.34
2018-11-06T04:08:33.513Z,80.67
2018-11-06T04:11:37.991Z,81.70
2018-11-06T04:14:42.163Z,81.25
2018-11-06T04:17:46.308Z,79.96
2018-11-06T04:20:50.449Z,80.38
2018-11-06T04:23:54.598Z,80.25
2018-11-06T04:26:58.750Z,80.64
2018-11-06T04:30:02.919Z,79.92
2018-11-06T04:33:07.064Z,79.47
2018-11-06T04:36:11.190Z,80.37
2018-11-06T04:39:15.322Z,80.94
2018-11-06T04:42:19.451Z,80.44
2018-11-06T04:45:23.591Z,80.83
2018-11-06T04:48:27.734Z,81.12
2018-11-06T04:51:31.873Z,80.95
2018-11-06T04:54:35.998Z,80.46
2018-11-06T04:57:40.129Z,81.33
2018-11-06T05:00:44.254Z,82.75
2018-11-06T05:03:48.525Z,82.31
2018-11-06T05:06:52.713Z,82.54
2018-11-06T05:09:56.799Z,81.59
2018-11-06T05:13:00.943Z,81.59
2018-11-06T05:16:05.538Z,81.50
2018-11-06T05:19:09.718Z,81.64
2018-11-06T05:22:13.842Z,79.98
2018-11-06T05:25:18.005Z,80.73
2018-11-06T05:28:22.122Z,80.93
2018-11-06T05:31:26.251Z,80.14
2018-11-06T05:34:30.390Z,81.35
2018-11-06T05:37:34.549Z,81.54
2018-11-06T05:40:51.741Z,81.25
2018-11-06T05:43:55.840Z,82.03
2018-11-06T05:46:59.972Z,81.83
2018-11-06T05:50:04.114Z,81.87
2018-11-06T05:53:08.307Z,81.32
2018-11-06T05:56:12.394Z,81.49
2018-11-06T05:59:16.531Z,81.77
2018-11-06T06:02:20.658Z,82.31
2018-11-06T06:05:24.816Z,82.69
2018-11-06T06:08:28.937Z,83.77
2018-11-06T06:11:33.047Z,84.04
2018-11-06T06:14:37.189Z,82.19
2018-11-06T06:17:41.310Z,81.81
2018-11-06T06:20:45.433Z,82.11
2018-11-06T06:23:49.640Z,81.90
2018-11-06T06:26:53.770Z,82.38
2018-11-06T06:29:57.908Z,82.22
2018-11-06T06:33:02.074Z,81.56
2018-11-06T06:36:06.275Z,81.66
2018-11-06T06:39:10.930Z,81.90
2018-11-06T06:42:15.062Z,81.59
2018-11-06T06:45:19.872Z,81.33
2018-11-06T06:48:24.010Z,82.07
2018-11-06T06:51:28.162Z,82.29
2018-11-06T06:54:32.500Z,82.62
2018-11-06T06:57:37.042Z,83.58
2018-11-06T07:00:41.194Z,83.58
2018-11-06T07:03:45.319Z,83.87
2018-11-06T07:06:49.755Z,82.93
2018-11-06T07:09:53.926Z,82.73
2018-11-06T07:12:58.149Z,82.76
2018-11-06T07:16:02.226Z,82.77
2018-11-06T07:19:06.370Z,83.19
2018-11-06T07:22:10.508Z,82.87
2018-11-06T07:25:15.133Z,83.04
2018-11-06T07:28:19.269Z,83.74
2018-11-06T07:31:23.422Z,83.50
2018-11-06T07:34:27.616Z,83.97
2018-11-06T07:37:31.722Z,83.77
2018-11-06T07:40:35.907Z,83.65
2018-11-06T07:43:40.017Z,83.20
2018-11-06T07:46:44.162Z,82.49
2018-11-06T07:49:48.342Z,82.41
2018-11-06T07:52:52.452Z,82.20
2018-11-06T07:55:56.615Z,81.36
2018-11-06T07:59:00.863Z,81.06
2018-11-06T08:02:05.437Z,81.11
2018-11-06T08:05:09.594Z,81.04
2018-11-06T08:08:13.783Z,81.16
2018-11-06T08:11:17.964Z,80.59
2018-11-06T08:14:22.120Z,79.78
2018-11-06T08:17:26.266Z,79.24
2018-11-06T08:20:30.481Z,79.73
2018-11-06T08:23:34.617Z,79.51
2018-11-06T08:26:38.706Z,79.78
2018-11-06T08:29:42.871Z,79.73
2018-11-06T08:32:47.241Z,79.56
2018-11-06T08:35:51.162Z,79.45
2018-11-06T08:38:55.305Z,80.12
2018-11-06T08:41:59.458Z,79.21
2018-11-06T08:45:04.102Z,79.11
2018-11-06T08:48:08.289Z,78.58
2018-11-06T08:51:12.413Z,78.53
2018-11-06T08:54:16.554Z,78.01
2018-11-06T08:57:20.713Z,77.96
2018-11-06T09:00:24.879Z,77.40
2018-11-06T09:03:29.046Z,78.17
2018-11-06T09:06:33.183Z,78.10
2018-11-06T09:09:37.339Z,78.04
2018-11-06T09:12:41.606Z,77.33
2018-11-06T09:15:45.758Z,76.57
2018-11-06T09:18:49.914Z,76.52
2018-11-06T09:21:54.085Z,76.60
2018-11-06T09:24:58.225Z,75.60
2018-11-06T09:28:02.368Z,74.32
2018-11-06T09:31:06.869Z,73.87
2018-11-06T09:34:10.934Z,73.22
2018-11-06T09:37:15.160Z,72.81
2018-11-06T09:40:20.034Z,72.66
2018-11-06T09:43:24.162Z,72.32
2018-11-06T09:46:28.309Z,71.75
2018-11-06T09:49:32.458Z,72.46
2018-11-06T09:52:36.600Z,72.75
2018-11-06T09:55:40.745Z,71.81
2018-11-06T09:58:44.874Z,71.48
2018-11-06T10:01:49.014Z,70.39
2018-11-06T10:04:53.169Z,70.27
2018-11-06T10:07:57.393Z,69.51
2018-11-06T10:11:01.446Z,69.65
2018-11-06T10:14:05.994Z,71.27
2018-11-06T10:17:10.145Z,70.93
2018-11-06T10:20:15.290Z,71.81
2018-11-06T10:23:19.411Z,72.21
2018-11-06T10:26:23.570Z,71.46
2018-11-06T10:29:27.699Z,71.82
2018-11-06T10:32:31.866Z,72.62
2018-11-06T10:35:36.018Z,72.74
2018-11-06T10:38:40.167Z,70.63
2018-11-06T10:41:44.309Z,69.46
2018-11-06T10:44:48.457Z,70.26
2018-11-06T10:47:52.617Z,71.77
2018-11-06T10:50:56.776Z,70.29
2018-11-06T10:54:00.918Z,71.15
2018-11-06T10:57:05.303Z,69.94
2018-11-06T11:00:16.646Z,68.28
2018-11-06T11:03:26.034Z,68.43
2018-11-06T11:06:30.213Z,67.80
2018-11-06T11:09:34.350Z,65.80
2018-11-06T11:12:38.653Z,67.26
2018-11-06T11:15:42.678Z,66.35
2018-11-06T11:18:46.819Z,65.78
2018-11-06T11:21:50.967Z,65.58
2018-11-06T11:24:55.118Z,65.46
2018-11-06T11:27:59.267Z,65.13
2018-11-06T11:31:03.413Z,65.76
2018-11-06T11:34:07.559Z,65.76
2018-11-06T11:37:11.692Z,64.79
2018-11-06T11:40:16.514Z,64.51
2018-11-06T11:43:20.644Z,63.76
2018-11-06T11:46:24.772Z,61.46
2018-11-06T11:49:28.890Z,61.56
2018-11-06T11:52:33.024Z,61.02
2018-11-06T11:55:37.177Z,61.46
2018-11-06T11:58:41.299Z,60.44
2018-11-06T12:01:45.428Z,60.89
2018-11-06T12:04:49.558Z,60.77
2018-11-06T12:07:53.678Z,59.52
2018-11-06T12:10:57.818Z,59.86
2018-11-06T12:14:01.946Z,59.42
2018-11-06T12:17:06.067Z,59.57
2018-11-06T12:20:10.454Z,58.70
2018-11-06T12:23:14.583Z,58.36
2018-11-06T12:26:18.715Z,59.57
2018-11-06T12:29:22.851Z,59.96
2018-11-06T12:32:27.006Z,58.06
2018-11-06T12:35:31.126Z,59.08
2018-11-06T12:38:35.254Z,58.88
2018-11-06T12:41:39.382Z,57.25
2018-11-06T12:44:43.790Z,55.35
2018-11-06T12:47:47.974Z,55.97
2018-11-06T12:50:52.090Z,55.29
2018-11-06T12:53:56.222Z,54.18
2018-11-06T12:57:00.365Z,53.92
2018-11-06T13:00:04.498Z,54.80
2018-11-06T13:03:08.637Z,54.89
2018-11-06T13:06:12.786Z,53.16
2018-11-06T13:09:16.906Z,53.80
2018-11-06T13:12:21.030Z,54.17
2018-11-06T13:15:25.166Z,54.81
2018-11-06T13:18:29.282Z,55.14
2018-11-06T13:21:33.406Z,55.45
2018-11-06T13:24:37.521Z,56.12
2018-11-06T13:27:42.346Z,57.40
2018-11-06T13:30:46.525Z,58.53
2018-11-06T13:33:50.895Z,58.84
2018-11-06T13:36:55.038Z,60.24
2018-11-06T13:39:59.183Z,60.94
2018-11-06T13:43:03.419Z,61.54
2018-11-06T13:46:07.482Z,61.43
2018-11-06T13:49:11.637Z,61.72
2018-11-06T13:52:15.849Z,62.05
2018-11-06T13:55:19.922Z,62.43
2018-11-06T13:58:24.066Z,62.60
2018-11-06T14:01:28.211Z,63.72
2018-11-06T14:04:32.354Z,64.70
2018-11-06T14:07:36.595Z,64.66
2018-11-06T14:10:40.726Z,64.45
2018-11-06T14:13:44.878Z,65.73
2018-11-06T14:16:49.041Z,65.53
2018-11-06T14:19:53.193Z,65.84
2018-11-06T14:22:57.343Z,65.44
2018-11-06T14:26:01.496Z,66.27
2018-11-06T14:29:05.646Z,66.85
2018-11-06T14:32:09.788Z,67.60
2018-11-06T14:35:15.055Z,68.36
2018-11-06T14:38:19.174Z,68.43
2018-11-06T14:41:23.322Z,70.06
2018-11-06T14:44:27.451Z,70.93
2018-11-06T14:47:31.581Z,71.33
2018-11-06T14:50:35.695Z,71.95
2018-11-06T14:53:39.818Z,72.44
2018-11-06T14:56:43.931Z,73.16
2018-11-06T14:59:48.051Z,73.46
2018-11-06T15:02:53.230Z,74.01
2018-11-06T15:05:57.354Z,74.20
2018-11-06T15:09:01.483Z,74.03
2018-11-06T15:12:05.597Z,75.01
2018-11-06T15:15:11.016Z,75.25
2018-11-06T15:18:15.142Z,75.63
2018-11-06T15:21:19.262Z,75.86
2018-11-06T15:24:23.390Z,76.04
2018-11-06T15:27:27.522Z,76.46
2018-11-06T15:30:31.655Z,76.92
2018-11-06T15:33:35.819Z,77.64
2018-11-06T15:36:39.970Z,77.63
2018-11-06T15:39:44.119Z,77.30
2018-11-06T15:42:48.302Z,78.06
2018-11-06T15:45:52.520Z,78.00
2018-11-06T15:48:56.706Z,78.66
2018-11-06T15:52:00.915Z,78.85
2018-11-06T15:55:05.478Z,78.49
2018-11-06T15:58:09.912Z,78.39
2018-11-06T16:01:14.057Z,78.07
2018-11-06T16:04:18.226Z,77.53
2018-11-06T16:07:22.382Z,77.11
2018-11-06T16:10:26.671Z,76.45
2018-11-06T16:13:30.817Z,76.03
2018-11-06T16:16:34.971Z,76.19
2018-11-06T16:19:39.130Z,75.19
2018-11-06T16:22:43.700Z,75.84
2018-11-06T16:25:47.859Z,75.80
2018-11-06T16:28:52.031Z,75.78
2018-11-06T16:31:56.188Z,75.82
2018-11-06T16:35:00.678Z,76.26
2018-11-06T16:38:04.872Z,77.04
2018-11-06T16:41:09.047Z,77.31
2018-11-06T16:44:13.215Z,77.99
2018-11-06T16:47:17.491Z,76.69
2018-11-06T16:50:21.810Z,76.15
2018-11-06T16:53:25.967Z,76.45
2018-11-06T16:56:30.115Z,76.21
2018-11-06T16:59:34.270Z,76.13
2018-11-06T17:02:38.449Z,75.98
2018-11-06T17:05:42.587Z,75.65
2018-11-06T17:08:46.744Z,75.40
2018-11-06T17:11:50.889Z,75.29
2018-11-06T17:14:55.047Z,76.48
2018-11-06T17:17:59.231Z,75.75
2018-11-06T17:21:03.405Z,75.42
2018-11-06T17:24:13.811Z,75.75
2018-11-06T17:27:20.896Z,75.68
2018-11-06T17:30:25.162Z,75.99
2018-11-06T17:33:29.430Z,76.13
2018-11-06T17:36:33.581Z,76.98
2018-11-06T17:39:37.874Z,76.98
2018-11-06T17:42:42.326Z,77.57
2018-11-06T17:45:46.514Z,76.63
2018-11-06T17:48:50.662Z,76.60
2018-11-06T17:51:54.861Z,75.55
2018-11-06T17:54:59.027Z,76.22
2018-11-06T17:58:03.191Z,75.89
2018-11-06T18:01:07.366Z,76.48
2018-11-06T18:04:11.625Z,76.77
2018-11-06T18:07:15.690Z,76.75
2018-11-06T18:10:20.597Z,76.92
2018-11-06T18:13:25.182Z,77.56
2018-11-06T18:16:29.318Z,77.26
2018-11-06T18:19:33.450Z,78.02
2018-11-06T18:22:37.830Z,77.46
2018-11-06T18:25:42.065Z,78.44
2018-11-06T18:28:46.118Z,77.59
2018-11-06T18:31:50.409Z,78.50
2018-11-06T18:34:54.440Z,78.28
2018-11-06T18:37:58.588Z,78.60
2018-11-06T18:41:02.726Z,78.04
2018-11-06T18:44:07.118Z,78.64
2018-11-06T18:47:11.294Z,78.87
2018-11-06T18:50:16.730Z,79.27
2018-11-06T18:53:20.871Z,79.07
2018-11-06T18:56:25.008Z,78.77
2018-11-06T18:59:29.151Z,78.60
2018-11-06T19:02:33.333Z,78.28
2018-11-06T19:05:37.456Z,79.01
2018-11-06T19:08:41.633Z,79.37
2018-11-06T19:11:45.770Z,78.68
2018-11-06T19:14:49.962Z,78.25
2018-11-06T19:17:54.134Z,79.46
2018-11-06T19:20:58.266Z,79.17
2018-11-06T19:24:02.442Z,79.78
2018-11-06T19:27:06.632Z,79.49
2018-11-06T19:30:16.174Z,80.31
2018-11-06T19:33:20.250Z,80.49
2018-11-06T19:36:24.430Z,79.34
2018-11-06T19:39:28.565Z,80.33
2018-11-06T19:42:32.733Z,81.24
2018-11-06T19:45:36.827Z,81.34
2018-11-06T19:48:41.011Z,81.01
2018-11-06T19:51:45.098Z,81.92
2018-11-06T19:54:49.238Z,81.39
2018-11-06T19:57:53.362Z,80.95
2018-11-06T20:00:57.584Z,81.90
2018-11-06T20:04:01.657Z,82.05
2018-11-06T20:07:05.818Z,79.80
2018-11-06T20:10:12.349Z,81.36
2018-11-06T20:13:16.478Z,80.00
2018-11-06T20:16:20.610Z,79.60
2018-11-06T20:19:24.740Z,79.98
2018-11-06T20:22:28.866Z,80.47
2018-11-06T20:25:33.011Z,80.89
2018-11-06T20:28:37.146Z,79.83
2018-11-06T20:31:41.289Z,80.50
2018-11-06T20:34:45.427Z,79.85
2018-11-06T20:37:49.609Z,80.22
2018-11-06T20:40:53.714Z,79.84
2018-11-06T20:43:57.842Z,80.15
2018-11-06T20:47:01.968Z,80.56
2018-11-06T20:50:09.634Z,81.22
2018-11-06T20:53:13.833Z,81.16
2018-11-06T20:56:17.895Z,80.10
2018-11-06T20:59:22.041Z,81.47
2018-11-06T21:02:26.174Z,80.83
2018-11-06T21:05:30.325Z,80.00
2018-11-06T21:08:34.486Z,80.97
2018-11-06T21:11:39.206Z,81.86
2018-11-06T21:14:43.342Z,80.76
2018-11-06T21:17:47.626Z,81.42
2018-11-06T21:20:51.698Z,80.82
2018-11-06T21:23:55.820Z,80.76
2018-11-06T21:27:00.117Z,81.78
2018-11-06T21:30:04.279Z,81.12
2018-11-06T21:33:08.418Z,81.08
2018-11-06T21:36:12.536Z,81.37
2018-11-06T21:39:16.776Z,82.43
2018-11-06T21:42:20.798Z,81.46
2018-11-06T21:45:24.939Z,82.23
2018-11-06T21:48:29.058Z,82.47
2018-11-06T21:51:33.186Z,83.19
2018-11-06T21:54:37.337Z,81.26
2018-11-06T21:57:41.505Z,81.08
2018-11-06T22:00:45.681Z,80.41
2018-11-06T22:03:49.811Z,82.14
2018-11-06T22:06:53.941Z,82.16
2018-11-06T22:09:58.094Z,81.31
2018-11-06T22:13:02.255Z,80.77
2018-11-06T22:16:06.809Z,81.11
2018-11-06T22:19:10.963Z,81.51
2018-11-06T22:22:15.201Z,81.42
2018-11-06T22:25:19.278Z,81.71
2018-11-06T22:28:23.422Z,81.57
2018-11-06T22:31:27.625Z,81.49
2018-11-06T22:34:31.690Z,83.16
2018-11-06T22:37:35.815Z,81.75
2018-11-06T22:40:39.964Z,83.85
2018-11-06T22:43:44.096Z,83.63
2018-11-06T22:46:48.235Z,82.82
2018-11-06T22:49:52.370Z,82.45
2018-11-06T22:52:56.510Z,82.97
2018-11-06T22:56:00.657Z,82.16
2018-11-06T22:59:04.797Z,82.19
2018-11-06T23:02:08.937Z,82.53
2018-11-06T23:05:13.274Z,83.45
2018-11-06T23:08:22.622Z,83.18
2018-11-06T23:11:26.758Z,83.63
2018-11-06T23:14:30.937Z,84.40
2018-11-06T23:17:35.018Z,84.27
2018-11-06T23:20:39.151Z,84.16
2018-11-06T23:23:43.250Z,82.64
2018-11-06T23:26:47.380Z,83.28
2018-11-06T23:29:51.505Z,83.24
2018-11-06T23:32:55.661Z,82.53
2018-11-06T23:35:59.812Z,82.19
2018-11-06T23:39:04.502Z,81.46
2018-11-06T23:42:08.660Z,82.65
2018-11-06T23:45:12.802Z,83.46
2018-11-06T23:48:16.950Z,83.42
2018-11-06T23:51:21.102Z,83.35
2018-11-06T23:54:25.231Z,83.72
2018-11-06T23:57:30.162Z,81.92
